Time;durP1;ratioP1;P1;durP2;ratioP2;P2;SDS_P1;SDS_P2;PMS_P1;PMS_P2;Temp;Humidity;BMP_temperature;BMP_pressure;BME280_temperature;BME280_humidity;BME280_pressure;Samples;Min_cycle;Max_cycle;Signal;HPM_P1;HPM_P2
2021/06/25 03:33:23;;;;;;;2.00;1.90;;;;;;;21.96;59.26;98944.94;6984552;23;20240;-85
2021/06/25 03:36:45;;;;;;;2.03;1.80;;;;;;;22.18;58.28;98935.31;6863263;28;20205;-84
2021/06/25 03:40:09;;;;;;;2.10;1.90;;;;;;;22.19;57.88;98939.69;6863742;28;20234;-84
2021/06/25 03:43:31;;;;;;;2.20;1.97;;;;;;;22.14;58.01;98941.63;6861534;28;20231;-85
2021/06/25 03:46:53;;;;;;;2.33;2.20;;;;;;;21.94;58.33;98942.47;6863447;28;20208;-87
2021/06/25 03:50:16;;;;;;;2.20;2.10;;;;;;;22.04;58.75;98947.97;6862387;28;20211;-87
2021/06/25 03:53:37;;;;;;;2.77;2.20;;;;;;;22.07;58.61;98932.84;6861933;28;20206;-87
2021/06/25 03:56:59;;;;;;;2.40;2.20;;;;;;;22.24;57.34;98916.91;6862689;28;20202;-87
2021/06/25 04:00:21;;;;;;;3.37;2.40;;;;;;;22.08;58.18;98949.03;6862265;28;20216;-87
2021/06/25 04:15:58;;;;;;;2.07;1.97;;;;;;;21.96;58.46;98925.72;6851342;28;20244;-83
2021/06/25 04:19:20;;;;;;;2.33;1.63;;;;;;;22.13;58.35;98937.25;6843300;28;20220;-82
2021/06/25 04:22:42;;;;;;;2.23;2.03;;;;;;;21.95;60.05;98952.34;6844954;28;20237;-82
2021/06/25 04:26:04;;;;;;;2.67;2.47;;;;;;;21.88;60.55;98950.97;6846166;28;20217;-82
2021/06/25 04:29:26;;;;;;;2.27;2.13;;;;;;;21.49;61.79;98916.88;6845767;28;20233;-82
2021/06/25 04:32:49;;;;;;;2.53;2.33;;;;;;;21.23;63.10;98905.03;6844241;29;20206;-82
2021/06/25 04:36:11;;;;;;;2.40;2.30;;;;;;;21.33;63.50;98917.94;6818792;29;20577;-82
2021/06/25 04:39:33;;;;;;;2.27;2.17;;;;;;;22.14;60.69;98945.19;6817678;29;20210;-82
2021/06/25 04:42:55;;;;;;;2.73;2.20;;;;;;;22.21;60.78;98944.91;6818445;29;20230;-83
2021/06/25 04:46:17;;;;;;;3.43;2.60;;;;;;;21.91;60.48;98925.72;6819795;28;20234;-82
2021/06/25 04:49:41;;;;;;;3.20;2.33;;;;;;;21.41;61.99;98852.38;6829761;28;20217;-83
2021/06/25 04:53:03;;;;;;;2.47;2.27;;;;;;;21.58;61.21;98872.16;6860786;28;20209;-83
2021/06/25 04:56:25;;;;;;;3.73;2.47;;;;;;;21.23;62.30;98885.84;6852324;28;20238;-82
2021/06/25 04:59:47;;;;;;;2.93;2.73;;;;;;;21.16;63.65;98872.66;6843503;28;20215;-83
2021/06/25 05:03:09;;;;;;;2.33;2.23;;;;;;;22.11;62.15;98953.16;6826381;28;20254;-83
2021/06/25 05:06:32;;;;;;;2.40;2.30;;;;;;;21.57;60.71;98850.47;6839687;28;20228;-83
2021/06/25 05:09:54;;;;;;;2.70;2.50;;;;;;;21.61;62.64;98882.56;6838453;28;20212;-83
2021/06/25 05:13:17;;;;;;;2.00;1.90;;;;;;;22.17;61.64;98946.56;6836675;28;20375;-83
2021/06/25 05:16:38;;;;;;;2.10;2.00;;;;;;;21.71;61.37;98885.34;6838230;29;20730;-84
2021/06/25 05:20:04;;;;;;;2.57;2.30;;;;;;;21.60;63.04;98954.22;6838271;29;20210;-84
2021/06/25 05:23:28;;;;;;;2.50;2.30;;;;;;;21.50;63.47;98937.72;6838909;28;20217;-84
2021/06/25 05:26:49;;;;;;;4.17;2.10;;;;;;;21.34;63.23;98862.81;6842088;29;20214;-84
2021/06/25 05:30:12;;;;;;;2.13;1.93;;;;;;;21.96;62.07;98932.00;6844235;29;20209;-84
2021/06/25 05:33:34;;;;;;;2.13;1.70;;;;;;;22.65;59.95;98937.72;6810802;29;20221;-85
2021/06/25 05:36:56;;;;;;;1.90;1.80;;;;;;;22.56;58.23;98895.41;6842316;28;20217;-84
2021/06/25 05:40:19;;;;;;;1.90;1.80;;;;;;;22.17;59.57;98844.94;6839741;29;20215;-84
2021/06/25 05:43:49;;;;;;;1.87;1.77;;;;;;;22.72;58.70;98903.31;6832150;28;20226;-85
2021/06/25 05:47:11;;;;;;;2.37;2.17;;;;;;;22.96;57.71;98945.56;6852601;28;20217;-85
2021/06/25 05:50:33;;;;;;;2.00;1.90;;;;;;;22.44;58.33;98868.25;6841102;29;20216;-85
2021/06/25 05:53:55;;;;;;;2.83;2.00;;;;;;;22.54;57.13;98864.66;6841106;29;20212;-85
2021/06/25 05:57:18;;;;;;;3.23;1.93;;;;;;;22.52;58.39;98944.63;6841050;28;20199;-85
2021/06/25 06:00:40;;;;;;;2.00;1.80;;;;;;;22.62;58.67;98921.78;6840850;28;20239;-84
2021/06/25 06:04:02;;;;;;;2.20;1.70;;;;;;;22.80;59.08;98944.00;6840769;28;20243;-85
2021/06/25 06:07:23;;;;;;;2.00;1.80;;;;;;;22.33;58.06;98898.75;6840984;28;20218;-85
2021/06/25 06:10:45;;;;;;;1.97;1.80;;;;;;;22.53;60.42;98956.44;6841068;28;20238;-86
2021/06/25 06:14:08;;;;;;;3.37;1.80;;;;;;;22.80;58.91;98960.50;6839442;29;20227;-87
2021/06/25 06:17:31;;;;;;;2.43;1.77;;;;;;;22.19;60.21;98969.09;6826797;29;20217;-87
2021/06/25 06:20:53;;;;;;;2.57;1.70;;;;;;;22.45;59.72;98966.06;6840869;28;20211;-87
2021/06/25 06:31:36;;;;;;;3.07;2.77;;;;;;;21.78;61.57;98929.81;6822564;29;20226;-87
2021/06/25 06:34:59;;;;;;;3.73;2.80;;;;;;;21.40;63.56;98984.34;6827490;29;20297;-87
2021/06/25 06:38:21;;;;;;;3.33;3.03;;;;;;;21.02;65.48;98983.91;6845542;28;20213;-87
2021/06/25 06:41:49;;;;;;;3.50;3.30;;;;;;;20.76;65.58;98947.31;6845741;29;20218;-84
2021/06/25 06:45:12;;;;;;;3.53;3.30;;;;;;;20.94;65.11;98960.56;6844475;29;20240;-84
2021/06/25 06:48:36;;;;;;;4.30;3.70;;;;;;;20.91;65.22;98944.69;6845601;29;20212;-85
2021/06/25 06:51:59;;;;;;;5.13;3.87;;;;;;;21.55;64.34;98976.16;6845340;29;20209;-85
2021/06/25 06:55:22;;;;;;;4.63;4.23;;;;;;;21.38;64.89;98920.69;6847435;28;20269;-85
2021/06/25 06:58:45;;;;;;;4.73;4.20;;;;;;;21.73;63.75;98931.75;6846487;29;20212;-85
2021/06/25 07:02:07;;;;;;;4.10;3.80;;;;;;;21.41;62.91;98912.75;6844925;29;20202;-85
2021/06/25 07:05:30;;;;;;;3.93;3.30;;;;;;;22.11;63.02;98997.94;6848217;29;20235;-85
2021/06/25 07:08:52;;;;;;;3.67;3.37;;;;;;;21.37;62.56;98875.97;6866084;28;20210;-87
2021/06/25 07:12:14;;;;;;;3.60;3.30;;;;;;;22.45;62.45;98993.56;6853928;28;20231;-82
2021/06/25 07:15:36;;;;;;;3.80;3.30;;;;;;;22.44;62.47;98956.19;6846611;28;20218;-81
2021/06/25 07:18:58;;;;;;;3.00;2.80;;;;;;;22.43;61.98;98994.94;6849205;28;20209;-79
2021/06/25 07:22:21;;;;;;;3.20;3.00;;;;;;;22.28;61.99;98942.69;6841652;29;20220;-79
2021/06/25 07:25:46;;;;;;;4.03;3.60;;;;;;;22.51;62.30;98975.13;6845014;29;20234;-80
2021/06/25 07:29:13;;;;;;;4.00;3.60;;;;;;;22.82;61.68;98994.03;6846740;28;20216;-80
2021/06/25 07:32:40;;;;;;;4.00;3.70;;;;;;;22.21;61.87;98970.47;6845898;28;20214;-80
2021/06/25 07:36:01;;;;;;;4.27;3.87;;;;;;;22.31;62.07;98925.69;6845257;28;20329;-80
2021/06/25 07:39:25;;;;;;;3.83;3.53;;;;;;;22.38;61.11;98917.97;6845514;28;20205;-80
2021/06/25 07:42:47;;;;;;;3.40;3.20;;;;;;;22.41;60.12;98984.19;6845165;28;20214;-80
2021/06/25 07:46:11;;;;;;;3.60;3.27;;;;;;;22.37;61.46;98957.53;6845198;28;20787;-80
2021/06/25 07:49:34;;;;;;;3.77;3.47;;;;;;;22.35;61.76;98963.31;6844825;28;20214;-80
2021/06/25 07:52:58;;;;;;;3.97;3.67;;;;;;;22.26;61.46;98929.25;6841598;28;20212;-80
2021/06/25 07:56:22;;;;;;;3.80;3.50;;;;;;;22.65;60.49;98922.03;6844338;29;20208;-80
2021/06/25 07:59:44;;;;;;;3.50;3.20;;;;;;;22.31;61.16;98904.50;6843984;29;20213;-80
2021/06/25 08:03:06;;;;;;;4.70;3.93;;;;;;;21.96;63.14;98962.22;6842810;28;20255;-80
2021/06/25 08:06:29;;;;;;;4.33;4.03;;;;;;;22.51;63.50;98988.88;6843828;29;20217;-79
2021/06/25 08:09:56;;;;;;;4.30;3.90;;;;;;;22.63;63.44;98990.22;6844966;28;20246;-81
2021/06/25 08:13:21;;;;;;;4.60;4.20;;;;;;;22.32;63.78;98963.88;6843685;28;20634;-81
2021/06/25 08:16:43;;;;;;;4.50;4.20;;;;;;;22.92;61.44;98976.66;6843393;29;20704;-80
2021/06/25 08:20:07;;;;;;;6.10;5.50;;;;;;;22.33;61.63;98910.56;6845712;29;20215;-80
2021/06/25 08:23:31;;;;;;;5.60;5.13;;;;;;;22.53;62.34;98954.50;6840629;29;20308;-81
2021/06/25 08:26:56;;;;;;;5.77;5.17;;;;;;;22.76;61.58;98961.31;6845309;29;20212;-81
2021/06/25 08:30:26;;;;;;;6.27;5.70;;;;;;;22.81;61.90;98981.38;6845720;28;20207;-81
2021/06/25 08:33:49;;;;;;;7.20;6.50;;;;;;;22.81;62.01;98981.38;6845210;29;20247;-82
2021/06/25 08:37:11;;;;;;;6.53;5.93;;;;;;;22.85;61.41;98912.91;6844775;29;20683;-81
2021/06/25 08:40:33;;;;;;;5.90;5.37;;;;;;;22.52;59.71;98891.56;6838200;29;20202;-78
2021/06/25 08:43:56;;;;;;;5.70;5.17;;;;;;;22.87;59.63;98985.75;6843157;29;20596;-79
2021/06/25 08:47:19;;;;;;;6.53;5.50;;;;;;;22.56;59.16;98887.16;6850458;28;20198;-79
2021/06/25 08:50:42;;;;;;;5.10;4.60;;;;;;;22.55;59.45;98927.56;6871073;28;20537;-80
2021/06/25 08:54:05;;;;;;;6.90;4.73;;;;;;;22.70;59.89;98982.50;6869992;28;20221;-79
2021/06/25 08:57:26;;;;;;;5.37;4.90;;;;;;;22.28;61.20;98932.53;6869768;28;20207;-79
2021/06/25 09:00:49;;;;;;;6.10;5.60;;;;;;;22.86;61.17;98966.78;6860428;28;20635;-79
2021/06/25 09:04:33;;;;;;;6.43;5.83;;;;;;;22.27;61.40;98921.84;6831180;28;20241;-79
2021/06/25 09:07:58;;;;;;;6.07;5.40;;;;;;;22.48;61.51;98907.81;6840895;28;20201;-80
2021/06/25 09:11:23;;;;;;;5.07;4.67;;;;;;;22.54;60.98;98914.91;6841871;28;20293;-80
2021/06/25 09:14:59;;;;;;;4.27;3.80;;;;;;;22.60;58.91;98935.00;6839734;29;20221;-80
2021/06/25 09:18:22;;;;;;;3.00;2.80;;;;;;;22.07;60.40;98917.19;6829562;28;20208;-79
2021/06/25 09:22:00;;;;;;;3.53;3.23;;;;;;;21.93;61.32;98931.75;6844003;28;20732;-81
2021/06/25 09:25:23;;;;;;;2.70;2.50;;;;;;;22.42;60.63;99007.81;6836466;29;20230;-78
2021/06/25 09:28:46;;;;;;;2.80;2.60;;;;;;;22.03;61.11;98940.00;6838449;29;20209;-78
2021/06/25 09:32:11;;;;;;;2.60;2.40;;;;;;;22.29;61.87;98991.03;6837770;28;20742;-79
2021/06/25 09:35:34;;;;;;;2.47;2.30;;;;;;;21.81;61.34;98937.53;6836900;28;20203;-80
2021/06/25 09:38:59;;;;;;;2.23;2.13;;;;;;;21.06;63.57;98925.56;6836977;29;20211;-80
2021/06/25 09:42:21;;;;;;;2.40;2.30;;;;;;;21.25;65.19;98996.09;6836932;29;20213;-80
2021/06/25 09:45:50;;;;;;;3.10;2.90;;;;;;;21.02;65.99;98943.63;6824985;29;20237;-79
2021/06/25 09:49:13;;;;;;;2.63;2.43;;;;;;;21.76;63.92;98977.84;6806565;29;20223;-80
2021/06/25 09:52:56;;;;;;;3.20;3.00;;;;;;;21.95;63.20;98970.75;6816357;29;20300;-79
2021/06/25 09:56:25;;;;;;;3.80;3.50;;;;;;;22.26;61.78;99002.59;6837381;28;20207;-78
2021/06/25 10:03:25;;;;;;;4.93;3.87;;;;;;;22.41;61.75;99008.91;6825663;28;20270;-78
2021/06/25 10:06:47;;;;;;;4.97;4.47;;;;;;;22.39;62.08;99008.38;6841963;28;20272;-79
2021/06/25 10:10:10;;;;;;;6.20;5.30;;;;;;;21.47;64.22;98938.25;6841015;28;20211;-79
2021/06/25 10:13:35;;;;;;;5.47;4.87;;;;;;;22.16;62.22;98973.22;6840244;28;20215;-78
2021/06/25 10:16:57;;;;;;;6.43;5.83;;;;;;;21.86;63.65;99019.88;6842626;28;20708;-78
2021/06/25 10:20:19;;;;;;;7.57;5.90;;;;;;;22.21;63.27;99038.31;6843939;28;20207;-77
2021/06/25 10:23:46;;;;;;;8.03;6.30;;;;;;;21.76;63.21;99005.31;6843593;28;20704;-78
2021/06/25 10:27:09;;;;;;;7.50;6.47;;;;;;;22.47;62.58;99023.47;6844194;28;20226;-80
2021/06/25 10:30:32;;;;;;;9.80;8.83;;;;;;;22.53;62.53;98995.72;6845957;28;20378;-79
2021/06/25 10:33:55;;;;;;;10.60;9.53;;;;;;;22.29;62.37;99043.25;6840530;28;20209;-78
2021/06/25 10:37:21;;;;;;;11.27;10.17;;;;;;;22.32;61.84;99053.69;6856222;28;20206;-79
2021/06/25 10:40:54;;;;;;;12.57;11.37;;;;;;;22.65;61.08;99044.94;6847962;29;20212;-79
2021/06/25 10:44:35;;;;;;;13.07;11.37;;;;;;;22.77;61.44;99042.72;6847353;29;20235;-78
2021/06/25 10:47:58;;;;;;;13.20;11.90;;;;;;;21.64;62.81;98945.16;6848038;29;20219;-78
2021/06/25 10:51:21;;;;;;;15.10;13.40;;;;;;;22.09;61.48;98975.41;6862924;28;20661;-78
2021/06/25 10:54:59;;;;;;;14.43;12.93;;;;;;;22.38;62.47;99045.19;6851203;28;20225;-79
2021/06/25 10:58:22;;;;;;;15.73;14.00;;;;;;;22.32;63.02;99043.53;6851274;28;20362;-77
2021/06/25 11:01:49;;;;;;;15.13;13.53;;;;;;;22.54;62.36;99046.84;6862915;28;20215;-80
2021/06/25 11:05:36;;;;;;;14.50;13.00;;;;;;;22.34;63.14;99055.06;6847530;28;20233;-78
2021/06/25 11:09:02;;;;;;;15.37;13.40;;;;;;;22.52;62.42;99007.84;6851784;28;20220;-78
2021/06/25 11:12:29;;;;;;;15.20;13.60;;;;;;;22.75;61.37;99042.97;6846591;28;20580;-78
2021/06/25 11:15:52;;;;;;;18.30;14.43;;;;;;;23.12;60.77;99039.88;6823848;29;20220;-79
2021/06/25 11:19:36;;;;;;;17.30;14.20;;;;;;;22.23;61.53;99023.19;6821351;29;20218;-78
2021/06/25 11:23:10;;;;;;;19.33;15.50;;;;;;;22.30;61.21;98981.72;6820824;29;20228;-78
2021/06/25 11:26:32;;;;;;;15.67;13.63;;;;;;;22.66;61.53;99055.63;6857277;28;20304;-78
2021/06/25 11:29:54;;;;;;;16.47;14.77;;;;;;;22.55;62.17;99053.19;6847912;29;20213;-77
2021/06/25 11:33:27;;;;;;;16.93;14.67;;;;;;;22.55;60.98;98976.22;6857378;28;20214;-78
2021/06/25 11:36:53;;;;;;;16.20;14.50;;;;;;;22.73;60.72;98964.63;6849471;28;20214;-78
2021/06/25 11:40:46;;;;;;;15.80;14.10;;;;;;;23.72;59.35;99006.59;6846808;29;20211;-79
2021/06/25 11:44:14;;;;;;;13.67;12.37;;;;;;;23.20;56.94;98938.31;6853600;28;20233;-78
2021/06/25 11:47:41;;;;;;;15.13;13.40;;;;;;;23.38;59.06;99053.28;6863347;28;20687;-79
2021/06/25 11:51:03;;;;;;;16.00;13.57;;;;;;;23.69;57.66;98996.97;6851956;28;20248;-78
2021/06/25 11:54:25;;;;;;;14.50;12.93;;;;;;;23.45;56.20;98965.72;6845799;29;20208;-78
2021/06/25 11:57:48;;;;;;;15.23;13.73;;;;;;;23.50;56.77;98971.22;6845839;28;20702;-79
2021/06/25 12:01:10;;;;;;;17.63;15.60;;;;;;;23.74;57.38;98996.94;6845569;29;20221;-79
2021/06/25 12:04:40;;;;;;;18.03;15.43;;;;;;;23.96;58.35;99030.41;6835456;29;20223;-79
2021/06/25 12:08:04;;;;;;;16.73;15.03;;;;;;;23.83;57.04;98964.09;6844280;29;20201;-78
2021/06/25 12:11:26;;;;;;;18.50;15.97;;;;;;;23.89;55.51;98911.47;6845915;29;20647;-79
2021/06/25 12:14:51;;;;;;;16.77;15.07;;;;;;;24.12;56.04;99039.41;6844503;29;20221;-78
2021/06/25 12:18:18;;;;;;;17.23;15.33;;;;;;;23.89;54.52;98965.75;6836910;28;20237;-79
2021/06/25 12:21:40;;;;;;;17.90;16.17;;;;;;;24.65;54.66;99014.41;6844057;28;20206;-79
2021/06/25 12:25:02;;;;;;;16.53;14.83;;;;;;;24.70;51.74;98955.63;6833261;29;20231;-79
2021/06/25 12:28:24;;;;;;;17.87;15.87;;;;;;;24.09;54.05;98996.72;6840452;28;20361;-77
2021/06/25 12:31:48;;;;;;;17.40;15.23;;;;;;;24.72;53.86;99025.94;6827741;29;20219;-76
2021/06/25 12:35:11;;;;;;;17.00;15.30;;;;;;;24.41;54.51;98939.09;6830226;29;20687;-78
2021/06/25 12:38:34;;;;;;;14.90;13.50;;;;;;;25.12;52.75;98947.44;6843142;29;20212;-79
2021/06/25 12:41:59;;;;;;;14.43;12.93;;;;;;;24.53;50.90;98922.97;6840389;29;20666;-78
2021/06/25 12:45:21;;;;;;;15.07;13.57;;;;;;;24.21;53.37;98941.22;6838951;28;20332;-78
2021/06/25 12:48:48;;;;;;;14.60;12.87;;;;;;;24.10;54.28;98951.50;6840182;28;20213;-78
2021/06/25 12:52:23;;;;;;;15.00;13.43;;;;;;;24.52;51.86;98937.03;6842126;29;20209;-78
2021/06/25 12:55:45;;;;;;;12.83;11.57;;;;;;;25.71;51.74;99014.81;6840652;28;20219;-78
2021/06/25 12:59:10;;;;;;;13.60;12.17;;;;;;;25.34;51.76;99011.19;6832707;28;20222;-78
2021/06/25 13:02:35;;;;;;;13.27;12.07;;;;;;;24.86;51.81;98982.78;6843689;28;20241;-77
2021/06/25 13:05:58;;;;;;;14.33;12.23;;;;;;;25.12;51.19;99008.94;6844588;28;20222;-77
2021/06/25 13:09:21;;;;;;;13.83;11.67;;;;;;;25.29;51.78;98995.50;6843865;29;20673;-78
2021/06/25 13:12:44;;;;;;;11.90;10.70;;;;;;;25.22;50.36;98936.22;6842031;29;20216;-78
2021/06/25 13:16:06;;;;;;;16.40;11.33;;;;;;;25.04;50.93;98968.22;6842375;29;20202;-78
2021/06/25 13:19:28;;;;;;;12.67;11.47;;;;;;;24.87;52.01;98976.13;6841750;28;20225;-78
2021/06/25 13:22:56;;;;;;;13.10;11.80;;;;;;;23.75;52.84;98891.19;6846013;28;20211;-78
2021/06/25 13:26:24;;;;;;;13.87;11.93;;;;;;;23.75;53.45;98939.91;6848658;28;20284;-77
2021/06/25 13:29:56;;;;;;;12.40;10.97;;;;;;;23.83;53.60;99017.25;6840084;29;20683;-78
2021/06/25 13:33:17;;;;;;;8.50;7.60;;;;;;;23.68;52.13;98936.66;6844026;28;20218;-78
2021/06/25 13:36:53;;;;;;;8.50;7.70;;;;;;;23.80;53.38;98993.03;6868651;28;20215;-78
2021/06/25 13:40:19;;;;;;;9.57;8.70;;;;;;;23.80;52.94;99006.81;6874341;28;20590;-77
2021/06/25 13:43:42;;;;;;;8.77;7.97;;;;;;;24.03;53.05;98999.78;6875333;28;20211;-78
2021/06/25 13:47:06;;;;;;;9.87;8.97;;;;;;;24.16;51.62;99007.38;6859230;28;20361;-78
2021/06/25 13:50:43;;;;;;;10.50;9.60;;;;;;;24.01;50.84;98966.19;6848559;29;20670;-78
2021/06/25 13:54:17;;;;;;;8.93;8.13;;;;;;;24.16;50.97;99010.97;6848340;29;20211;-77
2021/06/25 13:57:58;;;;;;;10.17;9.27;;;;;;;24.50;50.74;98978.72;6861673;28;20210;-81
2021/06/25 14:01:22;;;;;;;8.53;7.83;;;;;;;25.01;51.04;99010.16;6862391;28;20280;-82
2021/06/25 14:04:44;;;;;;;8.77;7.97;;;;;;;24.77;49.32;98945.91;6848521;29;20240;-83
2021/06/25 14:08:07;;;;;;;8.70;7.93;;;;;;;24.39;48.76;98905.50;6850621;28;20217;-82
2021/06/25 14:11:31;;;;;;;8.27;7.57;;;;;;;25.93;46.59;99004.03;6867816;28;20213;-82
2021/06/25 14:14:57;;;;;;;7.77;7.17;;;;;;;26.14;45.35;98922.41;6850487;28;20225;-82
2021/06/25 14:18:20;;;;;;;8.27;7.47;;;;;;;25.42;46.71;98936.00;6850957;28;20307;-82
2021/06/25 14:21:44;;;;;;;9.50;8.60;;;;;;;25.10;47.62;98969.78;6848767;29;20213;-84
2021/06/25 14:25:06;;;;;;;9.43;8.43;;;;;;;25.31;48.26;98970.38;6849229;28;20229;-83
2021/06/25 14:28:29;;;;;;;9.00;8.20;;;;;;;24.98;48.30;98932.69;6846263;29;20213;-83
2021/06/25 14:31:54;;;;;;;9.20;8.30;;;;;;;25.27;47.44;98961.88;6846549;29;20560;-83
2021/06/25 14:35:16;;;;;;;8.83;8.13;;;;;;;25.77;47.44;98997.06;6846403;29;20666;-79
2021/06/25 14:38:38;;;;;;;9.20;8.33;;;;;;;25.52;46.91;98946.88;6840638;29;20214;-78
2021/06/25 14:42:00;;;;;;;9.43;8.40;;;;;;;25.62;47.12;99008.34;6848103;29;20216;-77
2021/06/25 14:45:21;;;;;;;8.27;7.53;;;;;;;25.92;46.44;99004.31;6846915;28;20236;-78
2021/06/25 14:48:46;;;;;;;7.80;7.10;;;;;;;25.32;45.88;98920.38;6847879;28;20210;-77
2021/06/25 14:52:07;;;;;;;7.20;6.70;;;;;;;25.53;46.85;98943.00;6845815;28;20206;-78
2021/06/25 14:55:30;;;;;;;8.60;7.80;;;;;;;25.36;47.02;98931.66;6846708;29;20207;-78
2021/06/25 14:58:51;;;;;;;9.00;8.07;;;;;;;25.32;47.38;98936.94;6846350;29;20214;-76
2021/06/25 15:02:13;;;;;;;8.93;8.03;;;;;;;26.13;46.41;98984.34;6863800;28;20228;-78
2021/06/25 15:05:37;;;;;;;8.37;7.67;;;;;;;26.01;45.46;98967.41;6872401;28;20227;-78
2021/06/25 15:08:59;;;;;;;8.73;8.03;;;;;;;25.98;46.71;98995.66;6863791;28;20738;-77
2021/06/25 15:12:22;;;;;;;10.47;9.20;;;;;;;25.10;47.30;98972.56;6869885;28;20219;-78
2021/06/25 15:15:44;;;;;;;11.00;9.70;;;;;;;24.48;47.76;98928.53;6872887;28;20667;-77
2021/06/25 15:19:06;;;;;;;10.13;9.17;;;;;;;24.58;48.39;98906.41;6873225;28;20232;-77
2021/06/25 15:22:29;;;;;;;10.23;9.23;;;;;;;24.91;47.36;98923.94;6873305;28;20220;-77
2021/06/25 15:25:50;;;;;;;9.67;8.50;;;;;;;25.33;46.43;98908.25;6872403;28;20235;-78
2021/06/25 15:29:12;;;;;;;9.83;8.23;;;;;;;25.57;45.24;98895.19;6872558;28;20228;-77
2021/06/25 15:32:34;;;;;;;9.10;8.30;;;;;;;25.71;45.77;98886.97;6872476;28;20215;-78
2021/06/25 15:35:56;;;;;;;8.67;7.87;;;;;;;24.94;45.68;98854.38;6849696;28;20226;-78
2021/06/25 15:39:19;;;;;;;9.37;8.50;;;;;;;25.89;45.50;98966.22;6846087;29;20213;-77
2021/06/25 15:42:41;;;;;;;8.83;8.03;;;;;;;25.50;45.42;98922.34;6844016;29;20223;-78
2021/06/25 15:46:03;;;;;;;8.50;7.70;;;;;;;26.00;45.31;98882.03;6834520;29;20590;-77
2021/06/25 15:49:24;;;;;;;8.80;8.00;;;;;;;26.17;44.62;98888.66;6845118;28;20223;-77
2021/06/25 15:52:48;;;;;;;7.50;6.80;;;;;;;25.36;43.90;98885.53;6851191;28;20217;-77
2021/06/25 15:56:11;;;;;;;8.23;7.50;;;;;;;25.43;44.76;98866.66;6868807;28;20209;-78
2021/06/25 15:59:33;;;;;;;9.47;7.03;;;;;;;26.40;44.52;98948.50;6868805;28;20214;-80
2021/06/25 16:02:55;;;;;;;7.77;7.07;;;;;;;25.60;44.73;98891.78;6869558;28;20193;-78
2021/06/25 16:06:17;;;;;;;6.40;5.83;;;;;;;25.35;43.88;98872.03;6871325;28;20310;-78
2021/06/25 16:09:43;;;;;;;6.80;6.20;;;;;;;25.86;44.71;98941.94;6853302;28;20228;-79
2021/06/25 16:13:10;;;;;;;6.27;5.70;;;;;;;26.09;43.80;98896.81;6829758;28;20384;-79
2021/06/25 16:16:34;;;;;;;5.90;5.40;;;;;;;26.29;43.04;98932.38;6828455;28;20211;-79
2021/06/25 16:19:56;;;;;;;6.03;5.53;;;;;;;26.14;42.63;98922.41;6841734;28;20229;-83
2021/06/25 16:23:18;;;;;;;6.57;5.97;;;;;;;26.17;43.45;98916.31;6845441;28;20235;-82
2021/06/25 16:26:40;;;;;;;5.83;4.73;;;;;;;25.68;43.97;98902.19;6845651;28;20242;-82
2021/06/25 16:30:07;;;;;;;5.43;5.00;;;;;;;25.93;43.52;98932.19;6843047;28;20212;-82
2021/06/25 16:33:29;;;;;;;5.87;5.37;;;;;;;25.02;42.86;98821.44;6810030;29;20218;-83
2021/06/25 16:36:52;;;;;;;7.70;5.20;;;;;;;25.37;44.22;98927.78;6842938;29;20687;-83
2021/06/25 16:40:15;;;;;;;8.07;6.13;;;;;;;25.54;43.64;98909.56;6845310;29;20206;-86
2021/06/25 16:43:37;;;;;;;6.57;5.97;;;;;;;25.38;43.90;98915.63;6841978;29;20209;-86
2021/06/25 16:47:00;;;;;;;6.00;5.50;;;;;;;25.95;43.70;98938.22;6840257;29;20248;-85
2021/06/25 16:50:22;;;;;;;8.50;6.53;;;;;;;25.17;44.71;98872.81;6848169;28;20267;-85
2021/06/25 16:53:44;;;;;;;9.23;6.90;;;;;;;25.45;44.90;98930.69;6870857;28;20222;-85
2021/06/25 16:57:07;;;;;;;7.37;6.77;;;;;;;25.69;45.37;98942.50;6849682;28;20210;-85
2021/06/25 17:00:29;;;;;;;7.37;6.67;;;;;;;25.35;44.79;98831.47;6849765;28;20208;-84
2021/06/25 17:03:52;;;;;;;7.90;7.20;;;;;;;25.49;45.18;98879.25;6856678;28;20570;-85
2021/06/25 17:07:14;;;;;;;9.77;8.03;;;;;;;25.27;45.76;98909.44;6848468;28;20234;-85
2021/06/25 17:10:42;;;;;;;8.67;7.87;;;;;;;25.19;45.16;98849.31;6852876;28;20268;-86
2021/06/25 17:14:05;;;;;;;9.50;8.60;;;;;;;25.34;46.57;98933.88;6858641;28;20588;-85
2021/06/25 17:17:27;;;;;;;8.47;7.60;;;;;;;25.77;45.60;98902.31;6844319;28;20222;-85
2021/06/25 17:20:50;;;;;;;8.30;7.37;;;;;;;25.30;44.97;98863.84;6854517;28;20249;-84
2021/06/25 17:24:12;;;;;;;6.97;6.47;;;;;;;25.34;43.88;98860.19;6838779;28;20503;-87
2021/06/25 17:27:35;;;;;;;6.93;6.33;;;;;;;25.93;44.23;98934.97;6842759;29;20597;-82
2021/06/25 17:30:56;;;;;;;7.73;6.03;;;;;;;25.42;43.85;98842.13;6842394;29;20215;-81
2021/06/25 17:34:19;;;;;;;7.17;6.57;;;;;;;25.67;44.24;98935.63;6843135;29;20214;-81
2021/06/25 17:37:42;;;;;;;6.70;6.07;;;;;;;25.60;43.86;98891.78;6842128;28;20203;-80
2021/06/25 17:41:04;;;;;;;8.00;7.30;;;;;;;25.76;44.40;98948.47;6858781;28;20221;-76
2021/06/25 17:44:26;;;;;;;7.33;6.70;;;;;;;25.01;44.80;98907.28;6855609;28;20206;-80
2021/06/25 17:47:48;;;;;;;7.80;7.00;;;;;;;25.64;44.20;98952.78;6842079;28;20236;-80
2021/06/25 17:51:09;;;;;;;8.03;7.23;;;;;;;25.42;44.68;98950.59;6843396;28;20238;-80
2021/06/25 17:54:35;;;;;;;7.83;7.13;;;;;;;25.47;44.63;98939.50;6832568;28;20244;-81
2021/06/25 17:57:56;;;;;;;8.43;7.63;;;;;;;25.46;44.68;98948.06;6843673;29;20215;-81
2021/06/25 18:01:18;;;;;;;7.73;6.97;;;;;;;25.58;44.81;98920.84;6842224;29;20218;-82
2021/06/25 18:04:40;;;;;;;8.40;7.60;;;;;;;25.63;44.31;98885.69;6840931;29;20219;-82
2021/06/25 18:08:02;;;;;;;7.50;6.90;;;;;;;25.51;44.13;98878.97;6840642;29;20233;-83
2021/06/25 18:11:25;;;;;;;8.93;8.13;;;;;;;26.31;43.21;98952.28;6841717;29;20251;-89
2021/06/25 18:14:48;;;;;;;7.30;6.70;;;;;;;25.94;43.91;98916.41;6841715;28;20219;-92
2021/06/25 18:18:12;;;;;;;9.33;7.00;;;;;;;26.13;43.83;98929.06;6839429;29;20220;-90
2021/06/25 18:21:34;;;;;;;7.37;6.53;;;;;;;26.14;43.03;98908.59;6840766;28;20278;-90
2021/06/25 18:25:10;;;;;;;7.13;6.53;;;;;;;26.22;42.33;98930.03;6842248;28;20217;-91
2021/06/25 18:28:34;;;;;;;7.90;7.10;;;;;;;25.87;43.34;98930.59;6848714;28;20222;-89
2021/06/25 18:31:57;;;;;;;7.80;6.87;;;;;;;26.31;43.67;98966.09;6848913;29;20692;-91
2021/06/25 18:35:18;;;;;;;7.80;7.10;;;;;;;25.94;43.19;98910.88;6848093;28;20246;-89
2021/06/25 18:38:40;;;;;;;8.10;7.30;;;;;;;26.18;43.39;98948.34;6848185;29;20212;-89
2021/06/25 18:42:05;;;;;;;8.07;7.27;;;;;;;25.77;43.06;98913.38;6847598;29;20213;-90
2021/06/25 18:45:28;;;;;;;11.70;8.27;;;;;;;26.02;43.25;98982.06;6847653;29;20216;-88
2021/06/25 18:48:50;;;;;;;7.60;6.90;;;;;;;25.64;44.36;98980.41;6844960;29;20202;-79
2021/06/25 18:52:12;;;;;;;8.13;7.33;;;;;;;24.89;44.89;98912.41;6844246;28;20580;-80
2021/06/25 18:55:33;;;;;;;8.60;7.80;;;;;;;25.31;44.73;98927.03;6849470;29;20577;-81
2021/06/25 18:58:55;;;;;;;7.93;7.27;;;;;;;25.48;44.29;98915.47;6852608;29;20206;-81
2021/06/25 19:02:19;;;;;;;8.53;7.80;;;;;;;25.32;44.09;98978.34;6843471;29;20210;-81
2021/06/25 19:05:41;;;;;;;8.63;7.90;;;;;;;25.30;44.92;98977.03;6843467;29;20720;-81
2021/06/25 19:09:03;;;;;;;7.90;7.20;;;;;;;25.26;44.21;98962.16;6843972;29;20219;-81
2021/06/25 19:12:25;;;;;;;9.27;8.40;;;;;;;24.66;44.08;98847.03;6844106;28;20209;-81
2021/06/25 19:15:47;;;;;;;9.80;8.67;;;;;;;25.21;45.02;98937.34;6843410;29;20269;-81
2021/06/25 19:19:11;;;;;;;9.90;9.07;;;;;;;25.51;45.08;98990.25;6843591;28;20549;-89
2021/06/25 19:22:33;;;;;;;9.57;8.67;;;;;;;25.47;44.79;98983.69;6842388;29;20288;-88
2021/06/25 19:25:57;;;;;;;9.60;8.63;;;;;;;25.22;45.22;98947.28;6844077;29;20229;-88
2021/06/25 19:29:19;;;;;;;10.23;9.23;;;;;;;24.91;45.71;98907.41;6846983;29;20213;-88
2021/06/25 19:32:41;;;;;;;9.90;9.00;;;;;;;25.03;46.14;98983.13;6848147;29;20205;-83
2021/06/25 19:36:06;;;;;;;10.20;9.20;;;;;;;24.99;46.27;98979.31;6848546;28;20573;-89
2021/06/25 19:39:29;;;;;;;10.40;9.03;;;;;;;24.77;47.62;99006.56;6844945;29;20221;-90
2021/06/25 19:42:51;;;;;;;9.10;8.30;;;;;;;25.20;46.48;99027.59;6843526;29;20219;-90
2021/06/25 19:46:13;;;;;;;8.70;8.00;;;;;;;24.49;46.89;98923.84;6846636;29;20241;-90
2021/06/25 19:49:36;;;;;;;9.53;8.63;;;;;;;25.05;46.76;99015.91;6845402;28;20245;-89